Time;durP1;ratioP1;P1;durP2;ratioP2;P2;SDS_P1;SDS_P2;PMS_P1;PMS_P2;Temp;Humidity;BMP_temperature;BMP_pressure;BME280_temperature;BME280_humidity;BME280_pressure;Samples;Min_cycle;Max_cycle;Signal;HPM_P1;HPM_P2
2022/12/02 00:02:22;;;;;;;3.87;3.27;;;;;;;-143.84;100.00;45144.28;5111971;28;20435;-78
2022/12/02 00:04:55;;;;;;;4.43;4.03;;;;;;;-143.84;100.00;45102.38;5112184;28;20499;-78
2022/12/02 00:07:23;;;;;;;5.60;3.13;;;;;;;-143.84;100.00;45083.34;5111857;28;20773;-78
2022/12/02 00:09:50;;;;;;;3.30;3.00;;;;;;;-143.84;100.00;45119.53;5111686;28;21183;-78
2022/12/02 00:12:21;;;;;;;3.33;3.13;;;;;;;-143.84;100.00;45117.63;5111842;28;20439;-78
2022/12/02 00:14:54;;;;;;;3.77;3.50;;;;;;;-143.84;99.83;45140.47;5111532;28;20435;-77
2022/12/02 00:17:23;;;;;;;3.80;3.50;;;;;;;-143.84;100.00;45148.09;5111825;28;21295;-78
2022/12/02 00:19:50;;;;;;;3.63;3.40;;;;;;;-143.84;99.63;45132.84;5111221;28;20487;-78
2022/12/02 00:22:18;;;;;;;3.03;2.83;;;;;;;-143.84;99.72;45151.91;5110960;28;20446;-78
2022/12/02 00:24:45;;;;;;;3.30;3.10;;;;;;;-143.84;99.60;45148.09;5111198;28;20450;-78
2022/12/02 00:27:12;;;;;;;9.23;3.10;;;;;;;-143.84;99.85;45148.09;5111226;28;20527;-78
2022/12/02 00:29:39;;;;;;;3.27;3.03;;;;;;;-143.84;99.80;45159.50;5110948;28;20472;-78
2022/12/02 00:32:06;;;;;;;4.00;3.43;;;;;;;-143.84;99.77;45161.41;5110536;28;20512;-78
2022/12/02 00:34:35;;;;;;;5.27;3.77;;;;;;;-143.84;99.63;45150.00;5111145;28;20476;-78
2022/12/02 00:37:02;;;;;;;3.53;3.33;;;;;;;-143.84;99.88;45161.41;5111092;28;20952;-78
2022/12/02 00:39:29;;;;;;;3.53;3.33;;;;;;;-143.84;99.83;45148.09;5110757;28;20467;-78
2022/12/02 00:41:57;;;;;;;5.10;3.60;;;;;;;-143.84;99.91;45098.56;5110809;28;20574;-77
2022/12/02 00:47:08;;;;;;;3.80;3.50;;;;;;;-143.84;99.92;45150.00;5110396;28;20437;-77
2022/12/02 00:49:37;;;;;;;4.23;3.83;;;;;;;-143.84;100.00;45186.16;5110538;28;20944;-77
2022/12/02 00:52:04;;;;;;;4.23;3.80;;;;;;;-143.84;100.00;45121.44;5110484;28;20496;-77
2022/12/02 00:54:32;;;;;;;3.90;3.60;;;;;;;-143.84;100.00;45169.03;5110505;28;20889;-77
2022/12/02 00:57:00;;;;;;;4.77;4.30;;;;;;;-143.84;99.87;45140.47;5110432;28;20469;-77
2022/12/02 00:59:27;;;;;;;4.10;3.90;;;;;;;-143.84;100.00;45153.81;5110523;28;20435;-77
2022/12/02 01:01:54;;;;;;;5.93;3.67;;;;;;;-143.84;99.86;45113.81;5110175;28;20450;-77
2022/12/02 01:04:21;;;;;;;3.87;3.40;;;;;;;-143.84;99.83;45132.84;5110266;28;20515;-77
2022/12/02 01:06:49;;;;;;;5.97;3.40;;;;;;;-143.84;99.61;45165.22;5110063;28;21113;-77
2022/12/02 01:09:16;;;;;;;4.77;3.90;;;;;;;-143.84;99.98;45178.56;5110196;28;20453;-77
2022/12/02 01:11:44;;;;;;;7.30;4.40;;;;;;;-143.84;99.54;45163.31;5110321;28;21073;-77
2022/12/02 01:14:11;;;;;;;5.40;4.57;;;;;;;-143.84;99.69;45172.84;5109894;28;20448;-78
2022/12/02 01:16:38;;;;;;;6.87;4.80;;;;;;;-143.84;99.82;45153.81;5110083;28;20441;-77
2022/12/02 01:19:05;;;;;;;5.23;4.73;;;;;;;-143.84;99.88;45159.50;5110237;28;20455;-77
2022/12/02 01:21:33;;;;;;;5.93;4.50;;;;;;;-143.84;100.00;45150.00;5110087;28;20459;-77
2022/12/02 01:24:01;;;;;;;4.10;3.80;;;;;;;-143.84;99.63;45148.09;5109729;28;21171;-78
2022/12/02 01:26:28;;;;;;;4.40;3.60;;;;;;;-143.84;100.00;45176.66;5109968;28;20482;-77
2022/12/02 01:28:55;;;;;;;4.40;4.00;;;;;;;-143.84;99.57;45169.03;5110096;28;20443;-77
2022/12/02 01:31:23;;;;;;;3.90;3.50;;;;;;;-143.84;99.74;45140.47;5109902;28;20937;-77
2022/12/02 01:33:50;;;;;;;4.60;4.20;;;;;;;-143.84;99.72;45148.09;5109578;28;20450;-77
2022/12/02 01:36:17;;;;;;;3.90;3.60;;;;;;;-143.84;99.65;45142.38;5109760;28;20959;-77
2022/12/02 01:38:44;;;;;;;4.43;4.03;;;;;;;-143.84;99.23;45170.94;5111046;28;20441;-74
2022/12/02 01:41:13;;;;;;;7.97;4.23;;;;;;;-143.84;99.83;45165.22;5111198;28;20803;-74
2022/12/02 01:43:40;;;;;;;4.43;3.90;;;;;;;-143.84;99.40;45184.25;5112384;28;20439;-74
2022/12/02 01:46:07;;;;;;;4.47;4.07;;;;;;;-143.84;99.59;45153.81;5115722;28;20434;-74
2022/12/02 01:48:35;;;;;;;4.73;4.33;;;;;;;-143.84;99.11;45165.22;5115509;28;20442;-74
2022/12/02 01:51:04;;;;;;;9.70;4.60;;;;;;;-143.84;99.23;45176.66;5115328;28;20446;-74
2022/12/02 01:53:32;;;;;;;6.13;3.93;;;;;;;-143.84;99.40;45176.66;5115291;28;20827;-74
2022/12/02 01:55:59;;;;;;;5.40;4.50;;;;;;;-143.84;99.45;45151.91;5115128;28;20952;-74
2022/12/02 01:58:29;;;;;;;6.20;4.40;;;;;;;-143.84;99.80;45144.28;5115389;28;20427;-74
2022/12/02 02:00:57;;;;;;;8.40;4.27;;;;;;;-143.84;100.00;45136.66;5114640;28;20471;-74
2022/12/02 02:03:25;;;;;;;5.10;4.50;;;;;;;-143.84;100.00;45144.28;5114918;28;20438;-74
2022/12/02 02:05:52;;;;;;;6.80;4.40;;;;;;;-143.84;99.87;45159.50;5114846;28;20452;-74
2022/12/02 02:08:20;;;;;;;4.60;4.10;;;;;;;-143.84;99.71;45170.94;5115318;28;20418;-74
2022/12/02 02:10:47;;;;;;;5.30;4.00;;;;;;;-143.84;99.92;45155.69;5115342;28;20426;-74
2022/12/02 02:13:17;;;;;;;4.40;3.70;;;;;;;-143.84;99.83;45172.84;5114768;28;20442;-74
2022/12/02 02:15:46;;;;;;;6.47;4.87;;;;;;;-143.84;100.00;45155.69;5114700;28;20441;-74
2022/12/02 02:18:15;;;;;;;5.93;4.70;;;;;;;-143.84;99.69;45157.59;5114848;28;20481;-74
2022/12/02 02:20:43;;;;;;;3.97;3.67;;;;;;;-143.84;99.43;45184.25;5114811;28;20477;-74
2022/12/02 02:23:19;;;;;;;4.43;4.03;;;;;;;-143.84;99.36;45170.94;5114687;28;21018;-74
2022/12/02 02:25:48;;;;;;;6.40;5.33;;;;;;;-143.84;99.54;45148.09;5114770;28;20543;-74
2022/12/02 02:28:15;;;;;;;5.37;4.87;;;;;;;-143.84;99.46;45153.81;5114637;28;20435;-74
2022/12/02 02:30:43;;;;;;;4.70;4.20;;;;;;;-143.84;99.58;45157.59;5114907;28;21022;-74
2022/12/02 02:33:13;;;;;;;4.70;4.17;;;;;;;-143.84;99.05;45170.94;5114641;28;21334;-74
2022/12/02 02:35:42;;;;;;;4.10;3.70;;;;;;;-143.84;99.20;45193.78;5114416;28;20427;-74
2022/12/02 02:38:12;;;;;;;4.50;4.10;;;;;;;-143.84;99.19;45146.19;5114016;28;20443;-74
2022/12/02 02:40:42;;;;;;;4.17;3.87;;;;;;;-143.84;99.53;45130.94;5113865;28;20466;-74
2022/12/02 02:43:10;;;;;;;6.83;4.90;;;;;;;-143.84;99.32;45186.16;5114430;28;20464;-74
2022/12/02 02:45:39;;;;;;;4.97;4.57;;;;;;;-143.84;99.28;45174.75;5114134;28;20438;-74
2022/12/02 02:48:10;;;;;;;5.10;4.70;;;;;;;-143.84;99.69;45138.56;5114041;28;21010;-74
2022/12/02 02:50:40;;;;;;;5.63;5.07;;;;;;;-143.84;99.40;45136.66;5113858;28;20567;-74
2022/12/02 02:53:08;;;;;;;4.90;4.40;;;;;;;-143.84;99.28;45167.13;5114243;28;21200;-74
2022/12/02 02:55:35;;;;;;;5.30;4.83;;;;;;;-143.84;99.02;45201.41;5113719;28;20431;-74
2022/12/02 02:58:17;;;;;;;4.80;4.37;;;;;;;-143.84;98.59;45201.41;5113651;28;20492;-74
2022/12/02 03:00:48;;;;;;;6.13;4.53;;;;;;;-143.84;99.03;45170.94;5114123;28;20813;-74
2022/12/02 03:03:18;;;;;;;4.87;4.50;;;;;;;-143.84;98.61;45222.34;5113734;28;20428;-74
2022/12/02 03:05:46;;;;;;;4.77;4.37;;;;;;;-143.84;98.62;45207.13;5113890;28;20432;-74
2022/12/02 03:08:14;;;;;;;5.00;4.50;;;;;;;-143.84;98.69;45207.13;5113831;28;20484;-74
2022/12/02 03:10:42;;;;;;;5.57;5.07;;;;;;;-143.84;98.78;45203.31;5113940;28;20446;-74
2022/12/02 03:13:10;;;;;;;5.40;4.90;;;;;;;-143.84;98.21;45214.72;5113665;28;20499;-74
2022/12/02 03:15:38;;;;;;;7.30;5.43;;;;;;;-143.84;98.19;45220.44;5113724;28;20449;-74
2022/12/02 03:18:05;;;;;;;4.93;4.43;;;;;;;-143.84;98.15;45207.13;5113737;28;20983;-74
2022/12/02 03:20:33;;;;;;;5.23;4.80;;;;;;;-143.84;98.28;45205.22;5113494;28;20474;-74
2022/12/02 03:23:01;;;;;;;5.40;4.53;;;;;;;-143.84;98.03;45188.06;5113325;28;20500;-74
2022/12/02 03:25:28;;;;;;;5.37;4.57;;;;;;;-143.84;98.34;45241.41;5112805;28;20507;-74
2022/12/02 03:27:56;;;;;;;4.20;3.90;;;;;;;-143.84;98.43;45241.41;5113512;28;20490;-74
2022/12/02 03:30:25;;;;;;;5.10;4.70;;;;;;;-143.84;98.35;45222.34;5112857;28;20920;-74
2022/12/02 03:32:52;;;;;;;5.13;4.63;;;;;;;-143.84;98.63;45212.84;5112864;28;20431;-74
2022/12/02 03:35:20;;;;;;;4.67;4.37;;;;;;;-143.84;98.75;45205.22;5112547;28;20496;-74
2022/12/02 03:37:47;;;;;;;5.30;4.23;;;;;;;-143.84;98.47;45241.41;5113000;28;20431;-74
2022/12/02 03:40:15;;;;;;;4.63;4.23;;;;;;;-143.84;98.52;45229.97;5111830;28;20501;-74
2022/12/02 03:42:42;;;;;;;4.43;4.03;;;;;;;-143.84;98.68;45241.41;5110672;28;20437;-74
2022/12/02 03:45:11;;;;;;;6.80;4.00;;;;;;;-143.84;98.48;45205.22;5112019;28;21034;-74
2022/12/02 03:47:40;;;;;;;4.70;4.37;;;;;;;-143.84;98.44;45212.84;5113559;28;20431;-74
2022/12/02 03:50:09;;;;;;;4.37;3.97;;;;;;;-143.84;98.73;45186.16;5112755;28;20491;-74
2022/12/02 03:52:36;;;;;;;5.00;4.10;;;;;;;-143.84;98.27;45214.72;5112897;28;20539;-74
2022/12/02 03:55:04;;;;;;;3.57;3.37;;;;;;;-143.84;98.66;45212.84;5112701;28;20443;-74
2022/12/02 03:57:33;;;;;;;4.13;3.80;;;;;;;-143.84;98.41;45207.13;5113223;28;20496;-74
2022/12/02 04:00:01;;;;;;;4.03;3.73;;;;;;;-143.84;98.55;45235.69;5113191;28;20435;-74
2022/12/02 04:02:28;;;;;;;5.43;3.90;;;;;;;-143.84;98.55;45224.25;5112951;28;20458;-74
2022/12/02 04:04:56;;;;;;;4.43;3.90;;;;;;;-143.84;98.18;45231.88;5112788;28;20439;-74
2022/12/02 04:07:24;;;;;;;5.70;3.90;;;;;;;-143.84;98.14;45229.97;5111607;28;20431;-74
2022/12/02 04:09:51;;;;;;;4.93;3.57;;;;;;;-143.84;98.61;45231.88;5112592;28;20435;-74
2022/12/02 04:12:18;;;;;;;6.03;4.47;;;;;;;-143.84;98.59;45218.53;5112670;28;20442;-74
2022/12/02 04:14:45;;;;;;;4.73;4.03;;;;;;;-143.84;98.39;45212.84;5112135;28;20435;-74
2022/12/02 04:17:12;;;;;;;4.13;3.70;;;;;;;-143.84;97.99;45235.69;5112447;28;20504;-74
2022/12/02 04:19:39;;;;;;;4.30;4.00;;;;;;;-143.84;98.12;45233.78;5112366;28;20854;-74
2022/12/02 04:22:08;;;;;;;4.00;3.80;;;;;;;-143.84;98.03;45210.94;5109821;28;20469;-74
2022/12/02 04:24:35;;;;;;;3.93;3.63;;;;;;;-143.84;97.81;45209.03;5112287;28;20519;-74
2022/12/02 04:27:02;;;;;;;4.20;3.80;;;;;;;-143.84;98.15;45239.50;5111953;28;20482;-74
2022/12/02 04:29:29;;;;;;;4.83;4.40;;;;;;;-143.84;97.81;45231.88;5112273;28;20439;-74
2022/12/02 04:31:57;;;;;;;3.80;3.57;;;;;;;-143.84;97.76;45241.41;5111720;28;20439;-74
2022/12/02 04:34:24;;;;;;;3.83;3.53;;;;;;;-143.84;98.24;45209.03;5112171;28;20484;-74
2022/12/02 04:36:51;;;;;;;3.70;3.40;;;;;;;-143.84;97.69;45228.06;5111955;28;20442;-74
2022/12/02 04:39:19;;;;;;;4.03;3.73;;;;;;;-143.84;97.88;45209.03;5112478;28;20427;-74
2022/12/02 04:41:46;;;;;;;4.50;3.77;;;;;;;-143.84;97.58;45239.50;5112131;28;20474;-74
2022/12/02 04:44:14;;;;;;;4.20;3.90;;;;;;;-143.84;97.55;45228.06;5112024;28;20435;-74
2022/12/02 04:46:41;;;;;;;4.57;4.20;;;;;;;-143.84;97.61;45245.19;5111775;28;20434;-74
2022/12/02 04:49:08;;;;;;;4.20;3.83;;;;;;;-143.84;97.24;45222.34;5111715;28;20466;-74
2022/12/02 04:51:35;;;;;;;4.50;4.10;;;;;;;-143.84;97.38;45212.84;5112161;28;20827;-74
2022/12/02 04:54:02;;;;;;;5.63;3.67;;;;;;;-143.84;97.38;45247.09;5111709;28;20438;-74
2022/12/02 04:56:31;;;;;;;4.57;4.07;;;;;;;-143.84;97.24;45250.91;5107709;28;20451;-73
2022/12/02 04:58:58;;;;;;;4.83;4.40;;;;;;;-143.84;97.20;45218.53;5110609;28;20439;-75
2022/12/02 05:01:25;;;;;;;4.30;4.00;;;;;;;-143.84;96.95;45237.59;5109931;28;20482;-75
2022/12/02 05:03:52;;;;;;;4.60;4.17;;;;;;;-143.84;97.52;45273.78;5110463;28;20492;-74
2022/12/02 05:06:19;;;;;;;4.37;3.97;;;;;;;-143.84;97.67;45235.69;5109944;28;20936;-73
2022/12/02 05:08:46;;;;;;;4.10;3.80;;;;;;;-143.84;97.21;45216.63;5109682;28;20499;-74
2022/12/02 05:11:13;;;;;;;5.20;4.70;;;;;;;-143.84;96.94;45258.53;5111447;28;20850;-74
2022/12/02 05:13:42;;;;;;;4.37;4.00;;;;;;;-143.84;96.68;45254.72;5110891;28;20449;-74
2022/12/02 05:16:09;;;;;;;4.27;3.97;;;;;;;-143.84;97.07;45247.09;5110993;28;20460;-74
2022/12/02 05:18:36;;;;;;;3.97;3.67;;;;;;;-143.84;96.91;45268.06;5110847;28;21068;-74
2022/12/02 05:21:03;;;;;;;4.30;4.00;;;;;;;-143.84;97.15;45252.81;5110970;28;20467;-74
2022/12/02 05:23:30;;;;;;;3.90;3.50;;;;;;;-143.84;97.47;45224.25;5110105;28;20960;-74
2022/12/02 05:25:58;;;;;;;4.10;3.80;;;;;;;-143.84;97.54;45250.91;5109789;28;20562;-75
2022/12/02 05:28:25;;;;;;;4.23;3.93;;;;;;;-143.84;97.73;45224.25;5111002;28;20457;-75
2022/12/02 05:30:53;;;;;;;4.07;3.67;;;;;;;-143.84;98.26;45188.06;5110904;28;20484;-74
2022/12/02 05:33:20;;;;;;;4.30;3.90;;;;;;;-143.84;98.15;45235.69;5110588;28;20777;-75
2022/12/02 05:35:47;;;;;;;4.23;3.93;;;;;;;-143.84;98.23;45231.88;5110550;28;20435;-74
2022/12/02 05:38:15;;;;;;;4.40;4.03;;;;;;;-143.84;98.32;45195.69;5110784;28;20431;-74
2022/12/02 05:40:42;;;;;;;4.00;3.70;;;;;;;-143.84;98.24;45222.34;5110617;28;20441;-74
2022/12/02 05:43:18;;;;;;;5.20;4.37;;;;;;;-143.84;97.72;45229.97;5110426;28;20508;-75
2022/12/02 05:45:46;;;;;;;4.47;4.17;;;;;;;-143.84;98.19;45254.72;5109527;28;21014;-76
2022/12/02 05:48:17;;;;;;;6.30;4.40;;;;;;;-143.84;97.73;45239.50;5110908;28;20484;-76
2022/12/02 05:50:45;;;;;;;4.30;3.90;;;;;;;-143.84;97.74;45229.97;5111061;28;20940;-75
2022/12/02 05:53:20;;;;;;;5.00;4.50;;;;;;;-143.84;97.58;45235.69;5110797;28;20435;-75
2022/12/02 05:55:47;;;;;;;6.73;4.27;;;;;;;-143.84;97.71;45245.19;5110713;28;20434;-76
2022/12/02 05:58:14;;;;;;;5.13;4.63;;;;;;;-143.84;97.44;45277.56;5110488;28;20438;-75
2022/12/02 06:00:41;;;;;;;5.90;4.37;;;;;;;-143.84;97.35;45249.00;5111040;28;20801;-75
2022/12/02 06:03:18;;;;;;;4.97;4.47;;;;;;;-143.84;97.37;45222.34;5110971;28;20439;-76
2022/12/02 06:05:46;;;;;;;5.90;5.40;;;;;;;-143.84;97.20;45228.06;5110786;28;20423;-75
2022/12/02 06:08:17;;;;;;;5.00;4.50;;;;;;;-143.84;97.21;45269.97;5110734;28;20423;-75
2022/12/02 06:10:48;;;;;;;5.17;4.70;;;;;;;-143.84;97.66;45229.97;5110382;28;20531;-75
2022/12/02 06:13:20;;;;;;;5.83;5.20;;;;;;;-143.84;97.35;45245.19;5110716;28;20446;-75
2022/12/02 06:15:47;;;;;;;4.70;4.27;;;;;;;-143.84;97.33;45239.50;5111127;28;20540;-75
2022/12/02 06:18:17;;;;;;;4.97;4.53;;;;;;;-143.84;97.23;45222.34;5110477;28;20484;-75
2022/12/02 06:20:45;;;;;;;6.17;5.57;;;;;;;-143.84;97.19;45226.16;5110580;28;20436;-76
2022/12/02 06:23:15;;;;;;;6.00;5.40;;;;;;;-143.84;97.13;45241.41;5110573;28;20505;-75
2022/12/02 06:25:43;;;;;;;5.93;5.43;;;;;;;-143.84;97.50;45250.91;5110514;28;20562;-76
2022/12/02 06:28:26;;;;;;;7.40;6.00;;;;;;;-143.84;97.62;45224.25;5110405;28;20480;-76
2022/12/02 06:30:56;;;;;;;5.50;5.00;;;;;;;-143.84;97.35;45249.00;5111799;28;20442;-75
2022/12/02 06:33:30;;;;;;;8.67;6.53;;;;;;;-143.84;97.64;45226.16;5114089;28;20490;-76
2022/12/02 06:35:58;;;;;;;6.17;5.67;;;;;;;-143.84;97.65;45235.69;5113954;28;20484;-75
2022/12/02 06:38:29;;;;;;;6.80;6.17;;;;;;;-143.84;97.15;45239.50;5114154;28;20503;-75
2022/12/02 06:40:57;;;;;;;6.07;5.43;;;;;;;-143.84;97.29;45239.50;5113954;28;20538;-75
2022/12/02 06:43:29;;;;;;;7.90;6.60;;;;;;;-143.84;97.21;45218.53;5113798;28;20499;-75
2022/12/02 06:45:57;;;;;;;5.93;5.33;;;;;;;-143.84;97.46;45220.44;5113174;28;20435;-75
2022/12/02 06:48:29;;;;;;;7.93;6.33;;;;;;;-143.84;97.01;45241.41;5113007;28;20448;-75
2022/12/02 06:50:59;;;;;;;8.40;6.57;;;;;;;-143.84;97.34;45239.50;5113431;28;20834;-76
2022/12/02 06:53:33;;;;;;;9.90;6.90;;;;;;;-143.84;96.96;45254.72;5112862;28;20435;-77
2022/12/02 06:56:04;;;;;;;9.07;6.83;;;;;;;-143.84;96.75;45247.09;5112759;28;20435;-77
2022/12/02 06:58:41;;;;;;;8.10;7.30;;;;;;;-143.84;96.87;45250.91;5112941;28;20441;-77
2022/12/02 07:01:33;;;;;;;7.37;6.50;;;;;;;-143.84;96.89;45262.34;5112721;28;20438;-77
2022/12/02 07:04:44;;;;;;;7.63;6.67;;;;;;;-143.84;96.69;45241.41;5107624;28;20865;-77
2022/12/02 07:07:19;;;;;;;10.67;7.60;;;;;;;-143.84;97.33;45241.41;5112553;28;21054;-77
2022/12/02 07:09:49;;;;;;;11.80;8.07;;;;;;;-143.84;97.03;45231.88;5112626;28;20443;-77
2022/12/02 07:12:20;;;;;;;9.47;7.33;;;;;;;-143.84;97.35;45224.25;5112592;28;20438;-77
2022/12/02 07:14:49;;;;;;;9.50;7.60;;;;;;;-143.84;97.33;45250.91;5112636;28;20925;-77
2022/12/02 07:17:22;;;;;;;8.43;7.30;;;;;;;-143.84;97.38;45243.31;5112517;28;20434;-77
2022/12/02 07:19:57;;;;;;;9.00;7.73;;;;;;;-143.84;96.96;45268.06;5112380;28;20475;-77
2022/12/02 07:22:29;;;;;;;11.50;8.20;;;;;;;-143.84;97.24;45243.31;5112464;28;20899;-77
2022/12/02 07:25:02;;;;;;;11.60;9.10;;;;;;;-143.84;97.24;45231.88;5112181;28;20512;-77
2022/12/02 07:27:31;;;;;;;8.83;7.83;;;;;;;-143.84;97.48;45239.50;5112657;28;20479;-77
2022/12/02 07:30:00;;;;;;;11.20;8.97;;;;;;;-143.84;97.18;45218.53;5112368;28;21305;-77
2022/12/02 07:32:27;;;;;;;13.40;9.13;;;;;;;-143.84;97.21;45256.63;5112469;28;20447;-77
2022/12/02 07:34:55;;;;;;;9.90;8.90;;;;;;;-143.84;97.35;45252.81;5112489;28;20500;-77
2022/12/02 07:37:23;;;;;;;8.90;7.90;;;;;;;-143.84;97.14;45241.41;5112358;28;20496;-77
2022/12/02 07:39:50;;;;;;;11.50;8.90;;;;;;;-143.84;97.49;45258.53;5112287;28;20435;-77
2022/12/02 07:42:17;;;;;;;12.30;9.17;;;;;;;-143.84;97.09;45264.25;5112058;28;20475;-77
2022/12/02 07:44:44;;;;;;;10.90;8.87;;;;;;;-143.84;97.59;45235.69;5112037;28;20579;-77
2022/12/02 07:47:11;;;;;;;13.13;9.60;;;;;;;-143.84;97.50;45245.19;5112077;28;20450;-77
2022/12/02 07:49:38;;;;;;;11.43;9.10;;;;;;;-143.84;97.52;45258.53;5112367;28;20994;-77
2022/12/02 07:52:07;;;;;;;13.90;9.77;;;;;;;-143.84;97.33;45224.25;5112663;28;20515;-77
2022/12/02 07:54:34;;;;;;;12.13;10.13;;;;;;;-143.84;97.38;45247.09;5112508;28;20435;-77
2022/12/02 07:57:01;;;;;;;13.23;9.73;;;;;;;-143.84;97.29;45249.00;5112242;28;20442;-77
2022/12/02 07:59:28;;;;;;;11.20;9.53;;;;;;;-143.84;97.75;45228.06;5112406;28;20447;-77
2022/12/02 08:01:55;;;;;;;13.80;9.73;;;;;;;-143.84;97.40;45254.72;5111951;28;20505;-77
2022/12/02 08:04:22;;;;;;;13.73;9.77;;;;;;;-143.84;97.67;45254.72;5112265;28;20814;-77
2022/12/02 08:06:49;;;;;;;12.00;9.30;;;;;;;-143.84;97.64;45228.06;5112033;28;20431;-77
2022/12/02 08:09:18;;;;;;;12.13;9.80;;;;;;;-143.84;97.12;45237.59;5111919;28;20439;-77
2022/12/02 08:11:45;;;;;;;16.20;11.63;;;;;;;-143.84;97.29;45226.16;5111597;28;20447;-77
2022/12/02 08:14:12;;;;;;;13.97;10.90;;;;;;;-143.84;97.73;45228.06;5111504;28;20477;-77
2022/12/02 08:16:39;;;;;;;14.47;9.97;;;;;;;-143.84;97.29;45229.97;5111932;28;20427;-77
2022/12/02 08:19:06;;;;;;;13.13;10.17;;;;;;;-143.84;97.43;45228.06;5111595;28;20439;-77
2022/12/02 08:21:34;;;;;;;15.30;10.17;;;;;;;-143.84;97.61;45220.44;5111912;28;20434;-77
2022/12/02 08:24:02;;;;;;;12.80;10.67;;;;;;;-143.84;97.61;45241.41;5111541;28;20435;-77
2022/12/02 08:26:30;;;;;;;13.40;10.70;;;;;;;-143.84;97.65;45241.41;5111199;28;20490;-77
2022/12/02 08:28:58;;;;;;;15.23;11.33;;;;;;;-143.84;97.29;45241.41;5111452;28;20496;-77
2022/12/02 08:31:25;;;;;;;15.37;10.60;;;;;;;-143.84;97.83;45264.25;5110697;28;20438;-77
2022/12/02 08:33:52;;;;;;;18.00;11.97;;;;;;;-143.84;97.64;45252.81;5090755;28;20444;-77
2022/12/02 08:36:20;;;;;;;17.43;11.47;;;;;;;-143.84;97.53;45273.78;5090658;28;20435;-77
2022/12/02 08:38:47;;;;;;;20.93;14.20;;;;;;;-143.84;97.75;45209.03;5088967;28;20428;-77
2022/12/02 08:41:16;;;;;;;16.40;12.80;;;;;;;-143.84;97.78;45226.16;5090195;28;20484;-77
2022/12/02 08:43:45;;;;;;;17.40;12.13;;;;;;;-143.84;97.70;45218.53;5090575;28;20487;-77
2022/12/02 08:46:12;;;;;;;19.63;13.00;;;;;;;-143.84;97.48;45231.88;5090724;28;20846;-77
2022/12/02 08:48:39;;;;;;;19.37;12.83;;;;;;;-143.84;97.69;45210.94;5090796;28;20842;-77
2022/12/02 08:51:06;;;;;;;18.20;12.57;;;;;;;-143.84;97.69;45243.31;5090698;28;20444;-77
2022/12/02 08:53:33;;;;;;;20.33;14.10;;;;;;;-143.84;97.61;45247.09;5090221;28;20941;-77
2022/12/02 08:56:00;;;;;;;17.83;12.43;;;;;;;-143.84;97.77;45222.34;5090484;28;20497;-77
2022/12/02 08:58:28;;;;;;;20.13;12.30;;;;;;;-143.84;97.72;45209.03;5090896;28;20448;-77
2022/12/02 09:00:56;;;;;;;17.70;12.10;;;;;;;-143.84;97.65;45216.63;5090681;28;20453;-77
2022/12/02 09:03:23;;;;;;;22.13;13.43;;;;;;;-143.84;97.70;45220.44;5090131;28;20889;-77
2022/12/02 09:05:50;;;;;;;16.83;12.50;;;;;;;-143.84;97.66;45237.59;5090469;28;20435;-77
2022/12/02 09:08:18;;;;;;;15.77;12.00;;;;;;;-143.84;97.23;45233.78;5090778;28;20447;-77
2022/12/02 09:10:45;;;;;;;21.83;13.50;;;;;;;-143.84;97.39;45210.94;5090698;28;20926;-77
2022/12/02 09:13:12;;;;;;;21.73;14.40;;;;;;;-143.84;97.38;45231.88;5090168;28;20500;-77
2022/12/02 09:15:39;;;;;;;19.30;13.73;;;;;;;-143.84;97.47;45229.97;5090356;28;20934;-77
2022/12/02 09:18:07;;;;;;;19.00;12.80;;;;;;;-143.84;97.15;45210.94;5090388;28;20430;-77
2022/12/02 09:20:34;;;;;;;23.67;13.33;;;;;;;-143.84;96.87;45250.91;5090477;28;20436;-77
2022/12/02 09:23:02;;;;;;;20.43;13.70;;;;;;;-143.84;96.62;45222.34;5090613;28;20532;-77
2022/12/02 09:25:29;;;;;;;18.23;12.40;;;;;;;-143.84;96.29;45264.25;5090001;28;20561;-77
2022/12/02 09:27:56;;;;;;;21.03;14.30;;;;;;;-143.84;96.27;45250.91;5090310;28;21201;-77
2022/12/02 09:30:23;;;;;;;22.07;13.57;;;;;;;-143.84;96.21;45250.91;5090319;28;20439;-77
2022/12/02 09:32:50;;;;;;;25.13;15.23;;;;;;;-143.84;96.07;45235.69;5090171;28;20473;-77
2022/12/02 09:35:19;;;;;;;21.93;15.10;;;;;;;-143.84;96.10;45243.31;5090199;28;20436;-77
2022/12/02 09:37:46;;;;;;;22.40;13.67;;;;;;;-143.84;95.87;45275.66;5090279;28;20447;-77
2022/12/02 09:40:14;;;;;;;20.43;13.17;;;;;;;-143.84;95.64;45237.59;5090658;28;20824;-77
2022/12/02 09:42:42;;;;;;;22.50;15.50;;;;;;;-143.84;95.70;45250.91;5090285;28;20505;-77
2022/12/02 09:45:09;;;;;;;22.70;14.13;;;;;;;-143.84;96.01;45226.16;5090186;28;20512;-77
2022/12/02 09:47:37;;;;;;;21.53;14.77;;;;;;;-143.84;95.87;45228.06;5089905;28;21003;-77
2022/12/02 09:50:05;;;;;;;21.80;14.17;;;;;;;-143.84;96.01;45256.63;5090397;28;20466;-77
2022/12/02 09:52:34;;;;;;;22.93;15.23;;;;;;;-143.84;95.62;45239.50;5089967;28;20448;-77
2022/12/02 09:55:02;;;;;;;27.30;14.53;;;;;;;-143.84;95.22;45250.91;5090276;28;20463;-77
2022/12/02 09:57:32;;;;;;;19.40;13.63;;;;;;;-143.84;95.03;45273.78;5089889;28;20446;-77
2022/12/02 10:00:02;;;;;;;18.60;13.33;;;;;;;-143.84;94.88;45285.19;5090112;28;20505;-77
2022/12/02 10:02:36;;;;;;;20.53;12.97;;;;;;;-143.84;94.88;45281.38;5089743;28;20847;-77
2022/12/02 10:05:07;;;;;;;23.37;13.73;;;;;;;-143.84;95.00;45268.06;5089932;28;21024;-77
2022/12/02 10:07:36;;;;;;;18.60;13.70;;;;;;;-143.84;94.78;45258.53;5093727;28;20436;-77
2022/12/02 10:10:04;;;;;;;26.13;16.13;;;;;;;-143.84;94.91;45243.31;5093564;28;20444;-77
2022/12/02 10:12:32;;;;;;;25.77;14.60;;;;;;;-143.84;95.02;45260.44;5094227;28;20852;-75
2022/12/02 10:15:01;;;;;;;22.27;15.40;;;;;;;-143.84;95.19;45269.97;5093964;28;20442;-75
2022/12/02 10:17:28;;;;;;;20.33;14.63;;;;;;;-143.84;95.71;45250.91;5093881;28;20443;-75
2022/12/02 10:19:56;;;;;;;20.57;14.37;;;;;;;-143.84;95.39;45281.38;5094031;28;20435;-75
2022/12/02 10:22:23;;;;;;;24.20;16.60;;;;;;;-143.84;95.69;45250.91;5094121;28;20475;-75
2022/12/02 10:24:52;;;;;;;24.10;14.97;;;;;;;-143.84;95.57;45247.09;5093707;28;20448;-75
2022/12/02 10:27:26;;;;;;;28.97;16.67;;;;;;;-143.84;95.56;45273.78;5093595;28;20492;-75
2022/12/02 10:29:54;;;;;;;23.27;15.37;;;;;;;-143.84;95.06;45247.09;5093941;28;20435;-75
2022/12/02 10:32:23;;;;;;;21.90;13.27;;;;;;;-143.84;94.99;45262.34;5093716;28;20432;-75
2022/12/02 10:35:03;;;;;;;23.63;13.57;;;;;;;-143.84;95.10;45262.34;5093726;28;20439;-75
2022/12/02 10:37:33;;;;;;;23.47;15.17;;;;;;;-143.84;95.35;45273.78;5093700;28;20423;-75
2022/12/02 10:40:15;;;;;;;22.10;13.80;;;;;;;-143.84;95.25;45273.78;5093717;28;20496;-75
2022/12/02 10:42:42;;;;;;;18.03;12.93;;;;;;;-143.84;95.10;45247.09;5093322;28;20475;-76
2022/12/02 10:45:18;;;;;;;23.50;13.90;;;;;;;-143.84;95.05;45277.56;5093515;28;20456;-76
2022/12/02 10:47:46;;;;;;;22.60;14.90;;;;;;;-143.84;94.93;45258.53;5093404;28;20563;-75
2022/12/02 10:50:21;;;;;;;26.50;14.70;;;;;;;-143.84;94.90;45252.81;5093724;28;20443;-75
2022/12/02 10:52:51;;;;;;;24.07;13.70;;;;;;;-143.84;95.00;45252.81;5093250;28;20451;-75
2022/12/02 10:55:21;;;;;;;22.43;14.73;;;;;;;-143.84;95.14;45256.63;5093156;28;20432;-76
2022/12/02 10:57:49;;;;;;;28.03;13.90;;;;;;;-143.84;95.63;45254.72;5093142;28;20440;-76
2022/12/02 11:00:19;;;;;;;25.90;13.70;;;;;;;-143.84;95.77;45273.78;5093395;28;20454;-75
2022/12/02 11:02:49;;;;;;;20.00;13.67;;;;;;;-143.84;95.64;45281.38;5093273;28;20483;-75
2022/12/02 11:05:20;;;;;;;19.60;13.83;;;;;;;-143.84;95.64;45252.81;5093102;28;20436;-75
2022/12/02 11:07:56;;;;;;;22.27;14.10;;;;;;;-143.84;95.28;45235.69;5093053;28;20500;-75
2022/12/02 11:10:28;;;;;;;20.93;13.30;;;;;;;-143.84;95.42;45250.91;5092923;28;20428;-76
2022/12/02 11:13:02;;;;;;;19.77;13.30;;;;;;;-143.84;95.47;45269.97;5092960;28;20509;-76
2022/12/02 11:15:44;;;;;;;28.53;16.67;;;;;;;-143.84;95.48;45271.88;5093033;28;20427;-75
2022/12/02 11:18:33;;;;;;;20.77;13.60;;;;;;;-143.84;95.20;45229.97;5092520;28;20501;-75
2022/12/02 11:21:34;;;;;;;16.90;11.00;;;;;;;-143.84;95.05;45266.16;5092576;28;20531;-76
2022/12/02 11:24:37;;;;;;;21.73;13.90;;;;;;;-143.84;94.53;45283.28;5093120;28;20475;-76